Terminal Aerodrome Forecast
Issued by NWS Norman, OK

Home | Current Version | Previous Version | Text Only | Print | Product List | Glossary On
Versions: 1 2 3 4 5 6 7 8 9 10 11 12 13 14 15 16 17 18 19 20 21 22 23 24 25 26 27 28 29 30 31 32 33 34 35 36
000
FTUS44 KOUN 301121
TAFSPS
TAF
KSPS 301121Z 3012/3112 35013KT P6SM SCT015 BKN040
      TEMPO 3012/3015 4SM -TSRA BR OVC015CB
     FM301500 02014G21KT P6SM BKN040
     FM302200 02010KT P6SM SCT100 BKN250
     FM310400 03004KT P6SM SCT250=

USA.gov is the U.S. government's official web portal to all federal, state and local government web resources and services.